createdAt,value
2023-01-26T00:00:25.491Z,2.90
2023-01-26T00:03:06.163Z,3.00
2023-01-26T00:05:41.767Z,3.20
2023-01-26T00:08:11.588Z,3.10
2023-01-26T00:10:44.377Z,3.20
2023-01-26T00:13:17.106Z,3.20
2023-01-26T00:15:46.178Z,2.90
2023-01-26T00:18:22.570Z,2.90
2023-01-26T00:20:59.488Z,3.10
2023-01-26T00:23:33.130Z,3.10
2023-01-26T00:26:17.234Z,3.20
2023-01-26T00:28:55.715Z,3.40
2023-01-26T00:31:29.162Z,3.30
2023-01-26T00:34:05.632Z,3.40
2023-01-26T00:36:48.919Z,3.40
2023-01-26T00:39:19.002Z,3.20
2023-01-26T00:42:09.911Z,3.30
2023-01-26T00:44:39.998Z,3.50
2023-01-26T00:47:11.226Z,3.60
2023-01-26T00:49:41.599Z,3.50
2023-01-26T00:52:10.561Z,3.40
2023-01-26T00:54:39.392Z,3.50
2023-01-26T00:57:10.254Z,3.50
2023-01-26T00:59:39.115Z,3.50
2023-01-26T01:02:10.207Z,3.60
2023-01-26T01:04:40.497Z,3.60
2023-01-26T01:07:09.738Z,3.80
2023-01-26T01:09:38.687Z,3.70
2023-01-26T01:12:08.232Z,3.80
2023-01-26T01:14:37.073Z,3.70
2023-01-26T01:17:06.061Z,3.60
2023-01-26T01:19:35.148Z,3.70
2023-01-26T01:22:06.564Z,3.80
2023-01-26T01:24:36.008Z,3.60
2023-01-26T01:27:05.160Z,3.70
2023-01-26T01:29:34.180Z,3.60
2023-01-26T01:32:03.020Z,3.60
2023-01-26T01:34:32.371Z,3.60
2023-01-26T01:37:01.227Z,3.60
2023-01-26T01:39:31.745Z,3.60
2023-01-26T01:42:00.414Z,3.60
2023-01-26T01:44:29.183Z,3.70
2023-01-26T01:47:02.103Z,3.60
2023-01-26T01:49:38.527Z,3.70
2023-01-26T01:52:12.374Z,3.70
2023-01-26T01:54:49.095Z,3.80
2023-01-26T01:57:28.647Z,3.60
2023-01-26T02:00:06.572Z,3.60
2023-01-26T02:02:35.857Z,3.50
2023-01-26T02:05:14.572Z,3.40
2023-01-26T02:07:43.370Z,3.20
2023-01-26T02:10:20.644Z,3.30
2023-01-26T02:12:53.220Z,3.40
2023-01-26T02:15:21.902Z,3.20
2023-01-26T02:17:53.538Z,3.20
2023-01-26T02:20:33.928Z,3.30
2023-01-26T02:23:13.230Z,2.90
2023-01-26T02:25:59.371Z,3.10
2023-01-26T02:28:29.701Z,2.90
2023-01-26T02:30:59.241Z,2.70
2023-01-26T02:33:32.111Z,2.80
2023-01-26T02:36:04.768Z,2.90
2023-01-26T02:38:43.802Z,3.00
2023-01-26T02:41:38.447Z,2.90
2023-01-26T02:44:10.903Z,3.00
2023-01-26T02:46:39.668Z,3.20
2023-01-26T02:49:25.878Z,3.20
2023-01-26T02:51:54.746Z,3.20
2023-01-26T02:54:40.067Z,3.30
2023-01-26T02:57:10.333Z,3.40
2023-01-26T02:59:39.355Z,3.40
2023-01-26T03:02:08.763Z,3.60
2023-01-26T03:04:37.554Z,3.40
2023-01-26T03:07:06.450Z,3.30
2023-01-26T03:09:35.196Z,3.50
2023-01-26T03:12:04.813Z,3.20
2023-01-26T03:14:35.042Z,3.30
2023-01-26T03:17:03.892Z,3.20
2023-01-26T03:19:49.725Z,3.10
2023-01-26T03:22:35.818Z,3.10
2023-01-26T03:25:22.032Z,3.30
2023-01-26T03:27:51.552Z,3.20
2023-01-26T03:30:22.027Z,3.20
2023-01-26T03:32:50.927Z,3.30
2023-01-26T03:35:22.738Z,3.50
2023-01-26T03:37:55.950Z,3.60
2023-01-26T03:40:42.047Z,3.40
2023-01-26T03:43:28.596Z,3.50
2023-01-26T03:46:17.248Z,3.60
2023-01-26T03:49:03.505Z,3.40
2023-01-26T03:51:49.545Z,3.60
2023-01-26T03:54:35.967Z,3.60
2023-01-26T03:57:05.050Z,3.50
2023-01-26T03:59:39.674Z,3.60
2023-01-26T04:02:29.797Z,3.60
2023-01-26T04:05:16.639Z,3.70
2023-01-26T04:08:02.737Z,3.70
2023-01-26T04:10:33.980Z,3.50
2023-01-26T04:13:20.503Z,3.50
2023-01-26T04:16:07.566Z,3.50
2023-01-26T04:18:54.872Z,3.50
2023-01-26T04:21:30.445Z,3.50
2023-01-26T04:24:00.244Z,3.30
2023-01-26T04:26:37.021Z,3.40
2023-01-26T04:29:08.666Z,3.40
2023-01-26T04:31:37.551Z,3.50
2023-01-26T04:34:15.096Z,3.30
2023-01-26T04:36:44.606Z,3.20
2023-01-26T04:39:13.500Z,3.20
2023-01-26T04:41:42.609Z,3.00
2023-01-26T04:44:11.398Z,3.20
2023-01-26T04:46:40.138Z,3.20
2023-01-26T04:49:10.802Z,3.20
2023-01-26T04:51:39.450Z,3.20
2023-01-26T04:54:08.350Z,3.20
2023-01-26T04:56:38.071Z,3.00
2023-01-26T04:59:09.108Z,3.00
2023-01-26T05:01:38.159Z,2.80
2023-01-26T05:04:09.419Z,2.80
2023-01-26T05:06:38.406Z,2.90
2023-01-26T05:09:07.676Z,2.80
2023-01-26T05:11:39.378Z,2.80
2023-01-26T05:14:08.210Z,2.80
2023-01-26T05:16:36.969Z,2.80
2023-01-26T05:19:05.851Z,3.10
2023-01-26T05:21:35.847Z,3.10
2023-01-26T05:24:04.618Z,3.20
2023-01-26T05:26:33.370Z,3.20
2023-01-26T05:29:02.073Z,3.50
2023-01-26T05:31:30.848Z,3.40
2023-01-26T05:33:59.696Z,3.60
2023-01-26T05:36:28.463Z,3.50
2023-01-26T05:38:59.147Z,3.50
2023-01-26T05:41:28.127Z,3.50
2023-01-26T05:43:56.824Z,3.60
2023-01-26T05:46:25.534Z,3.60
2023-01-26T05:48:55.000Z,3.60
2023-01-26T05:51:23.565Z,3.60
2023-01-26T05:53:52.219Z,3.60
2023-01-26T05:56:22.344Z,3.80
2023-01-26T05:58:50.954Z,3.70
2023-01-26T06:01:19.659Z,3.70
2023-01-26T06:03:48.355Z,3.70
2023-01-26T06:06:17.233Z,3.80
2023-01-26T06:08:45.910Z,3.80
2023-01-26T06:11:14.536Z,3.60
2023-01-26T06:13:44.644Z,3.70
2023-01-26T06:16:13.350Z,3.40
2023-01-26T06:18:42.046Z,3.70
2023-01-26T06:21:11.002Z,3.60
2023-01-26T06:23:39.692Z,3.60
2023-01-26T06:26:10.814Z,3.60
2023-01-26T06:28:39.652Z,3.60
2023-01-26T06:31:10.824Z,3.80
2023-01-26T06:33:40.236Z,3.80
2023-01-26T06:36:12.367Z,3.70
2023-01-26T06:38:47.582Z,3.60
2023-01-26T06:41:17.410Z,3.60
2023-01-26T06:43:49.131Z,3.70
2023-01-26T06:46:20.033Z,3.80
2023-01-26T06:48:48.790Z,3.80
2023-01-26T06:51:57.818Z,3.70
2023-01-26T06:54:26.538Z,3.60
2023-01-26T06:56:55.118Z,3.60
2023-01-26T06:59:23.873Z,3.50
2023-01-26T07:01:54.224Z,3.60
2023-01-26T07:04:27.460Z,3.60
2023-01-26T07:06:56.378Z,3.70
2023-01-26T07:09:25.304Z,3.60
2023-01-26T07:11:53.926Z,3.30
2023-01-26T07:14:22.531Z,3.30
2023-01-26T07:16:51.271Z,3.10
2023-01-26T07:19:21.940Z,3.00
2023-01-26T07:21:50.669Z,3.00
2023-01-26T07:24:21.983Z,3.00
2023-01-26T07:26:50.783Z,3.10
2023-01-26T07:29:19.778Z,3.00
2023-01-26T07:31:49.041Z,3.20
2023-01-26T07:34:18.161Z,3.10
2023-01-26T07:36:48.207Z,3.20
2023-01-26T07:39:17.088Z,3.10
2023-01-26T07:41:45.744Z,3.20
2023-01-26T07:44:14.733Z,3.20
2023-01-26T07:46:45.589Z,2.90
2023-01-26T07:49:14.839Z,3.00
2023-01-26T07:51:43.559Z,3.20
2023-01-26T07:54:14.081Z,3.30
2023-01-26T07:56:44.301Z,3.20
2023-01-26T07:59:13.403Z,3.10
2023-01-26T08:01:42.444Z,3.30
2023-01-26T08:04:11.870Z,3.40
2023-01-26T08:06:40.327Z,3.50
2023-01-26T08:09:09.176Z,3.40
2023-01-26T08:11:39.115Z,3.40
2023-01-26T08:14:07.610Z,3.30
2023-01-26T08:16:36.312Z,3.10
2023-01-26T08:19:05.138Z,3.30
2023-01-26T08:21:33.726Z,3.20
2023-01-26T08:24:03.572Z,3.20
2023-01-26T08:26:32.115Z,3.20
2023-01-26T08:29:02.340Z,3.30
2023-01-26T08:31:33.596Z,3.20
2023-01-26T08:34:02.631Z,3.20
2023-01-26T08:36:31.850Z,3.40
2023-01-26T08:39:02.952Z,3.50
2023-01-26T08:41:33.267Z,3.60
2023-01-26T08:44:03.811Z,3.70
2023-01-26T08:46:32.404Z,3.70
2023-01-26T08:49:00.891Z,3.80
2023-01-26T08:51:29.397Z,4.10
2023-01-26T08:53:58.019Z,4.00
2023-01-26T08:56:26.594Z,4.30
2023-01-26T08:58:55.076Z,4.20
2023-01-26T09:01:25.250Z,4.40
2023-01-26T09:03:55.932Z,4.20
2023-01-26T09:06:25.262Z,4.20
2023-01-26T09:08:53.724Z,4.30
2023-01-26T09:11:22.194Z,4.30
2023-01-26T09:13:56.379Z,4.50
2023-01-26T09:16:26.688Z,4.30
2023-01-26T09:18:55.523Z,4.30
2023-01-26T09:21:25.089Z,4.20
2023-01-26T09:23:53.748Z,4.10
2023-01-26T09:26:22.238Z,4.30
2023-01-26T09:28:52.759Z,4.30
2023-01-26T09:31:21.298Z,4.20
2023-01-26T09:33:52.180Z,4.30
2023-01-26T09:36:21.331Z,4.30
2023-01-26T09:38:51.122Z,4.20
2023-01-26T09:41:39.758Z,4.20
2023-01-26T09:44:12.142Z,4.20
2023-01-26T09:46:58.207Z,4.40
2023-01-26T09:49:44.933Z,4.30
2023-01-26T09:52:23.892Z,4.10
2023-01-26T09:54:54.752Z,4.00
2023-01-26T09:57:33.783Z,4.20
2023-01-26T10:00:09.659Z,4.10
2023-01-26T10:02:54.496Z,4.10
2023-01-26T10:05:38.242Z,4.20
2023-01-26T10:08:13.802Z,4.20
2023-01-26T10:10:49.323Z,4.00
2023-01-26T10:13:19.884Z,4.00
2023-01-26T10:15:54.137Z,3.90
2023-01-26T10:18:31.007Z,3.90
2023-01-26T10:21:05.621Z,3.90
2023-01-26T10:23:36.659Z,3.90
2023-01-26T10:26:14.976Z,4.00
2023-01-26T10:28:46.051Z,3.70
2023-01-26T10:31:19.771Z,3.70
2023-01-26T10:33:54.267Z,3.70
2023-01-26T10:36:24.910Z,3.70
2023-01-26T10:38:54.216Z,3.70
2023-01-26T10:41:29.389Z,3.80
2023-01-26T10:44:00.632Z,3.70
2023-01-26T10:46:33.847Z,3.70
2023-01-26T10:49:05.569Z,3.70
2023-01-26T10:51:37.637Z,3.80
2023-01-26T10:54:24.849Z,4.00
2023-01-26T10:56:56.728Z,3.80
2023-01-26T10:59:32.269Z,3.80
2023-01-26T11:02:04.319Z,4.00
2023-01-26T11:04:33.002Z,3.70
2023-01-26T11:07:29.292Z,3.80
2023-01-26T11:09:58.032Z,3.70
2023-01-26T11:12:27.644Z,3.70
2023-01-26T11:15:06.224Z,3.70
2023-01-26T11:17:42.117Z,3.70
2023-01-26T11:20:48.048Z,3.70
2023-01-26T11:23:35.187Z,3.50
2023-01-26T11:26:53.536Z,3.40
2023-01-26T11:29:54.493Z,3.60
2023-01-26T11:32:36.872Z,3.60
2023-01-26T11:35:20.032Z,3.60
2023-01-26T11:37:54.019Z,3.50
2023-01-26T11:40:39.318Z,3.50
2023-01-26T11:43:34.175Z,3.40
2023-01-26T11:46:42.421Z,3.60
2023-01-26T11:49:33.542Z,3.60
2023-01-26T11:52:14.474Z,3.70
2023-01-26T11:55:15.300Z,3.60
2023-01-26T11:58:02.981Z,3.50
2023-01-26T12:00:41.995Z,3.40
2023-01-26T12:03:25.885Z,3.40
2023-01-26T12:05:59.132Z,3.60
2023-01-26T12:08:38.627Z,3.40
2023-01-26T12:11:24.145Z,3.40
2023-01-26T12:14:22.532Z,3.40
2023-01-26T12:17:19.934Z,3.20
2023-01-26T12:20:04.496Z,3.10
2023-01-26T12:22:38.255Z,3.30
2023-01-26T12:25:24.832Z,3.30
2023-01-26T12:28:04.169Z,3.20
2023-01-26T12:30:42.956Z,3.20
2023-01-26T12:33:12.922Z,3.30
2023-01-26T12:36:18.285Z,3.20
2023-01-26T12:39:13.112Z,3.30
2023-01-26T12:42:05.106Z,3.30
2023-01-26T12:44:42.447Z,3.60
2023-01-26T12:47:26.705Z,3.30
2023-01-26T12:50:03.886Z,3.30
2023-01-26T12:52:42.224Z,3.40
2023-01-26T12:55:21.783Z,3.40
2023-01-26T12:57:55.912Z,3.60
2023-01-26T13:00:29.856Z,3.60
2023-01-26T13:03:06.014Z,3.40
2023-01-26T13:05:37.197Z,3.50
2023-01-26T13:08:53.774Z,3.50
2023-01-26T13:11:46.974Z,3.60
2023-01-26T13:15:01.047Z,3.50
2023-01-26T13:17:55.044Z,3.60
2023-01-26T13:20:51.466Z,3.60
2023-01-26T13:23:53.239Z,3.70
2023-01-26T13:26:53.535Z,3.70
2023-01-26T13:29:35.630Z,3.70
2023-01-26T13:33:06.430Z,3.60
2023-01-26T13:35:38.240Z,3.60
2023-01-26T13:38:19.252Z,3.60
2023-01-26T13:40:50.787Z,3.70
2023-01-26T13:43:36.614Z,3.60
2023-01-26T13:46:13.956Z,3.80
2023-01-26T13:48:47.326Z,3.60
2023-01-26T13:51:21.503Z,3.60
2023-01-26T13:53:58.666Z,3.70
2023-01-26T13:56:34.448Z,3.60
2023-01-26T13:59:10.890Z,3.70
2023-01-26T14:01:45.937Z,3.60
2023-01-26T14:04:20.834Z,3.60
2023-01-26T14:06:57.710Z,3.60
2023-01-26T14:09:29.227Z,3.50
2023-01-26T14:12:02.924Z,3.60
2023-01-26T14:14:36.330Z,3.40
2023-01-26T14:17:09.997Z,3.40
2023-01-26T14:19:42.908Z,3.50
2023-01-26T14:22:18.668Z,3.30
2023-01-26T14:24:51.207Z,3.20
2023-01-26T14:27:42.572Z,3.40
2023-01-26T14:30:27.211Z,3.40
2023-01-26T14:33:04.842Z,3.40
2023-01-26T14:35:34.260Z,3.40
2023-01-26T14:38:19.961Z,3.40
2023-01-26T14:40:50.837Z,3.40
2023-01-26T14:43:20.072Z,3.60
2023-01-26T14:45:56.747Z,3.40
2023-01-26T14:48:37.915Z,3.40
2023-01-26T14:51:12.128Z,3.30
2023-01-26T14:53:42.163Z,3.30
2023-01-26T14:56:20.895Z,3.30
2023-01-26T14:58:55.758Z,3.00
2023-01-26T15:01:28.110Z,3.20
2023-01-26T15:04:03.922Z,2.90
2023-01-26T15:06:34.333Z,3.00
2023-01-26T15:09:20.800Z,3.10
2023-01-26T15:12:12.914Z,3.20
2023-01-26T15:14:51.651Z,3.30
2023-01-26T15:17:37.196Z,3.40
2023-01-26T15:20:13.300Z,3.30
2023-01-26T15:22:43.188Z,3.10
2023-01-26T15:25:26.103Z,3.00
2023-01-26T15:27:58.959Z,3.00
2023-01-26T15:30:32.592Z,2.90
2023-01-26T15:33:01.617Z,2.90
2023-01-26T15:35:32.591Z,2.80
2023-01-26T15:38:04.286Z,2.80
2023-01-26T15:40:34.530Z,2.90
2023-01-26T15:43:15.735Z,2.90
2023-01-26T15:45:52.556Z,2.90
2023-01-26T15:48:22.271Z,2.90
2023-01-26T15:50:51.764Z,3.00
2023-01-26T15:53:23.548Z,3.00
2023-01-26T15:55:56.153Z,3.10
2023-01-26T15:58:25.792Z,3.10
2023-01-26T16:00:54.718Z,3.20
2023-01-26T16:03:24.012Z,3.20
2023-01-26T16:05:52.592Z,3.10
2023-01-26T16:08:21.905Z,3.10
2023-01-26T16:10:52.398Z,3.20
2023-01-26T16:13:21.162Z,3.30
2023-01-26T16:15:52.766Z,3.20
2023-01-26T16:18:22.399Z,3.20
2023-01-26T16:20:52.137Z,3.30
2023-01-26T16:23:23.994Z,3.20
2023-01-26T16:25:54.659Z,3.00
2023-01-26T16:28:24.014Z,2.90
2023-01-26T16:30:53.168Z,2.90
2023-01-26T16:33:22.818Z,3.10
2023-01-26T16:35:51.455Z,3.00
2023-01-26T16:38:20.569Z,3.10
2023-01-26T16:40:53.056Z,2.90
2023-01-26T16:43:27.678Z,2.80
2023-01-26T16:45:58.003Z,2.90
2023-01-26T16:48:29.012Z,2.90
2023-01-26T16:50:57.907Z,2.90
2023-01-26T16:53:31.239Z,3.00
2023-01-26T16:56:00.945Z,3.10
2023-01-26T16:58:33.346Z,3.20
2023-01-26T17:01:02.293Z,3.10
2023-01-26T17:03:31.149Z,3.00
2023-01-26T17:06:00.447Z,2.90
2023-01-26T17:08:29.549Z,2.90
2023-01-26T17:11:02.328Z,3.00
2023-01-26T17:13:34.438Z,3.00
2023-01-26T17:16:03.436Z,2.90
2023-01-26T17:18:33.549Z,2.80
2023-01-26T17:21:04.673Z,2.80
2023-01-26T17:23:33.263Z,2.60
2023-01-26T17:26:02.073Z,2.70
2023-01-26T17:28:32.086Z,2.60
2023-01-26T17:31:01.552Z,2.70
2023-01-26T17:33:31.055Z,2.80
2023-01-26T17:36:03.440Z,2.90
2023-01-26T17:38:38.986Z,2.90
2023-01-26T17:41:08.500Z,2.90
2023-01-26T17:43:38.473Z,3.00
2023-01-26T17:46:09.846Z,2.90
2023-01-26T17:48:38.925Z,2.80
2023-01-26T17:51:08.873Z,2.80
2023-01-26T17:53:42.149Z,2.60
2023-01-26T17:56:12.576Z,2.60
2023-01-26T17:58:42.880Z,2.60
2023-01-26T18:01:12.480Z,2.60
2023-01-26T18:03:43.557Z,2.70
2023-01-26T18:06:12.856Z,2.60
2023-01-26T18:08:42.270Z,2.90
2023-01-26T18:11:13.187Z,2.70
2023-01-26T18:13:49.652Z,2.90
2023-01-26T18:16:21.493Z,2.70
2023-01-26T18:18:50.196Z,2.70
2023-01-26T18:21:22.701Z,2.70
2023-01-26T18:23:53.941Z,2.70
2023-01-26T18:26:25.137Z,2.90
2023-01-26T18:28:55.363Z,2.90
2023-01-26T18:31:27.188Z,2.80
2023-01-26T18:33:57.544Z,2.90
2023-01-26T18:36:26.994Z,2.90
2023-01-26T18:38:58.045Z,2.90
2023-01-26T18:41:28.627Z,2.90
2023-01-26T18:43:59.268Z,2.80
2023-01-26T18:46:30.967Z,2.80
2023-01-26T18:49:01.046Z,2.40
2023-01-26T18:51:31.999Z,2.40
2023-01-26T18:54:01.028Z,2.30
2023-01-26T18:56:29.595Z,2.60
2023-01-26T18:58:59.558Z,2.50
2023-01-26T19:01:28.447Z,2.40
2023-01-26T19:03:58.654Z,2.20
2023-01-26T19:06:30.927Z,2.20
2023-01-26T19:09:03.518Z,2.20
2023-01-26T19:11:35.359Z,2.30
2023-01-26T19:14:08.000Z,2.40
2023-01-26T19:16:37.031Z,2.40
2023-01-26T19:19:06.192Z,2.40
2023-01-26T19:21:34.829Z,2.30
2023-01-26T19:24:06.177Z,2.20
2023-01-26T19:26:35.497Z,2.30
2023-01-26T19:29:06.526Z,2.30
2023-01-26T19:31:37.100Z,2.40
2023-01-26T19:34:07.793Z,2.40
2023-01-26T19:36:37.919Z,2.30
2023-01-26T19:39:07.927Z,2.30
2023-01-26T19:41:38.853Z,2.20
2023-01-26T19:44:09.306Z,2.20
2023-01-26T19:46:37.788Z,2.30
2023-01-26T19:49:08.724Z,2.30
2023-01-26T19:51:37.496Z,2.20
2023-01-26T19:54:06.287Z,2.20
2023-01-26T19:56:36.927Z,2.20
2023-01-26T19:59:10.280Z,2.40
2023-01-26T20:01:39.110Z,2.50
2023-01-26T20:04:12.565Z,2.30
2023-01-26T20:06:41.413Z,2.30
2023-01-26T20:09:10.471Z,2.30
2023-01-26T20:11:39.184Z,2.40
2023-01-26T20:14:12.599Z,2.40
2023-01-26T20:16:41.673Z,2.50
2023-01-26T20:19:11.711Z,2.40
2023-01-26T20:21:40.469Z,2.40
2023-01-26T20:24:13.322Z,2.20
2023-01-26T20:26:43.462Z,2.30
2023-01-26T20:29:16.529Z,2.30
2023-01-26T20:31:45.674Z,2.40
2023-01-26T20:34:15.571Z,2.40
2023-01-26T20:36:44.632Z,2.40
2023-01-26T20:39:17.680Z,2.40
2023-01-26T20:41:46.253Z,2.40
2023-01-26T20:44:16.374Z,2.70
2023-01-26T20:46:45.903Z,2.60
2023-01-26T20:49:18.774Z,2.60
2023-01-26T20:51:47.894Z,2.50
2023-01-26T20:54:19.185Z,2.30
2023-01-26T20:56:49.931Z,2.20
2023-01-26T20:59:20.776Z,2.20
2023-01-26T21:01:49.324Z,2.30
2023-01-26T21:04:18.167Z,2.50
2023-01-26T21:06:46.785Z,2.50
2023-01-26T21:09:15.400Z,2.60
2023-01-26T21:11:44.026Z,2.50
2023-01-26T21:14:14.371Z,2.60
2023-01-26T21:16:44.533Z,2.60
2023-01-26T21:19:13.360Z,2.50
2023-01-26T21:21:41.960Z,2.70
2023-01-26T21:24:11.248Z,2.70
2023-01-26T21:26:40.083Z,2.80
2023-01-26T21:29:11.852Z,2.70
2023-01-26T21:31:40.413Z,2.70
2023-01-26T21:34:11.190Z,2.80
2023-01-26T21:36:39.740Z,2.80
2023-01-26T21:39:12.383Z,2.90
2023-01-26T21:41:59.372Z,2.90
2023-01-26T21:44:29.985Z,3.00
2023-01-26T21:47:01.040Z,2.90
2023-01-26T21:49:31.289Z,2.90
2023-01-26T21:52:17.263Z,2.80
2023-01-26T21:54:46.095Z,2.80
2023-01-26T21:57:32.069Z,2.80
2023-01-26T22:00:00.647Z,3.00
2023-01-26T22:02:29.223Z,2.80
2023-01-26T22:04:59.161Z,2.50
2023-01-26T22:07:29.849Z,2.40
2023-01-26T22:09:58.397Z,2.40
2023-01-26T22:12:27.044Z,2.40
2023-01-26T22:14:55.680Z,2.60
2023-01-26T22:17:42.524Z,2.50
2023-01-26T22:20:31.072Z,2.60
2023-01-26T22:22:59.952Z,2.50
2023-01-26T22:25:28.515Z,2.60
2023-01-26T22:27:57.140Z,2.60
2023-01-26T22:30:51.104Z,2.80
2023-01-26T22:33:19.619Z,2.40
2023-01-26T22:35:49.695Z,2.60
2023-01-26T22:38:18.382Z,2.50
2023-01-26T22:40:46.987Z,2.70
2023-01-26T22:43:15.540Z,2.50
2023-01-26T22:45:44.657Z,2.30
2023-01-26T22:48:13.212Z,2.40
2023-01-26T22:50:42.119Z,2.10
2023-01-26T22:53:12.766Z,2.30
2023-01-26T22:55:43.082Z,2.40
2023-01-26T22:58:12.551Z,2.40
2023-01-26T23:00:41.304Z,2.60
2023-01-26T23:03:10.649Z,2.50
2023-01-26T23:05:39.794Z,2.60
2023-01-26T23:08:08.840Z,2.60
2023-01-26T23:10:38.997Z,2.80
2023-01-26T23:13:08.305Z,2.70
2023-01-26T23:15:39.319Z,2.70
2023-01-26T23:18:09.454Z,2.70
2023-01-26T23:20:38.228Z,2.80
2023-01-26T23:23:07.001Z,2.80
2023-01-26T23:25:53.726Z,2.80
2023-01-26T23:28:25.837Z,2.90
2023-01-26T23:30:56.873Z,2.60
2023-01-26T23:33:27.988Z,2.60
2023-01-26T23:35:56.986Z,2.70
2023-01-26T23:38:28.490Z,2.30
2023-01-26T23:41:00.678Z,2.50
2023-01-26T23:43:30.208Z,2.50
2023-01-26T23:45:59.481Z,2.40
2023-01-26T23:48:28.752Z,2.30
2023-01-26T23:50:58.576Z,2.60
2023-01-26T23:53:27.867Z,2.50
2023-01-26T23:55:59.929Z,2.60
2023-01-26T23:58:29.072Z,2.60
